sensor_id;sensor_type;location;lat;lon;timestamp;temperature;humidity
15143;DHT22;7672;50.834;6.286;2023-12-04T00:01:52;5.00;99.90
15143;DHT22;7672;50.834;6.286;2023-12-04T00:04:19;5.00;99.90
15143;DHT22;7672;50.834;6.286;2023-12-04T00:06:45;5.00;99.90
15143;DHT22;7672;50.834;6.286;2023-12-04T00:09:12;5.00;99.90
15143;DHT22;7672;50.834;6.286;2023-12-04T00:11:39;5.00;99.90
15143;DHT22;7672;50.834;6.286;2023-12-04T00:14:06;5.00;99.90
15143;DHT22;7672;50.834;6.286;2023-12-04T00:16:34;5.00;99.90
15143;DHT22;7672;50.834;6.286;2023-12-04T00:19:04;5.20;99.90
15143;DHT22;7672;50.834;6.286;2023-12-04T00:21:31;5.00;99.90
15143;DHT22;7672;50.834;6.286;2023-12-04T00:23:58;5.00;99.90
15143;DHT22;7672;50.834;6.286;2023-12-04T00:26:25;5.00;99.90
15143;DHT22;7672;50.834;6.286;2023-12-04T00:28:52;5.00;99.90
15143;DHT22;7672;50.834;6.286;2023-12-04T00:31:18;5.00;99.90
15143;DHT22;7672;50.834;6.286;2023-12-04T00:33:45;5.00;99.90
15143;DHT22;7672;50.834;6.286;2023-12-04T00:36:12;5.00;99.90
15143;DHT22;7672;50.834;6.286;2023-12-04T00:38:40;5.00;99.90
15143;DHT22;7672;50.834;6.286;2023-12-04T00:41:07;4.90;99.90
15143;DHT22;7672;50.834;6.286;2023-12-04T00:43:34;5.00;99.90
15143;DHT22;7672;50.834;6.286;2023-12-04T00:46:01;5.00;99.90
15143;DHT22;7672;50.834;6.286;2023-12-04T00:48:28;5.00;99.90
15143;DHT22;7672;50.834;6.286;2023-12-04T00:50:57;4.90;99.90
15143;DHT22;7672;50.834;6.286;2023-12-04T00:53:24;4.90;99.90
15143;DHT22;7672;50.834;6.286;2023-12-04T00:55:51;4.90;99.90
15143;DHT22;7672;50.834;6.286;2023-12-04T00:58:18;4.90;99.90
15143;DHT22;7672;50.834;6.286;2023-12-04T01:00:45;4.80;99.90
15143;DHT22;7672;50.834;6.286;2023-12-04T01:03:14;4.80;99.90
15143;DHT22;7672;50.834;6.286;2023-12-04T01:05:41;4.70;99.90
15143;DHT22;7672;50.834;6.286;2023-12-04T01:08:09;4.70;99.90
15143;DHT22;7672;50.834;6.286;2023-12-04T01:10:35;4.70;99.90
15143;DHT22;7672;50.834;6.286;2023-12-04T01:13:02;5.00;99.90
15143;DHT22;7672;50.834;6.286;2023-12-04T01:15:29;4.60;99.90
15143;DHT22;7672;50.834;6.286;2023-12-04T01:17:56;4.60;99.90
15143;DHT22;7672;50.834;6.286;2023-12-04T01:20:23;4.60;99.90
15143;DHT22;7672;50.834;6.286;2023-12-04T01:22:51;4.60;99.90
15143;DHT22;7672;50.834;6.286;2023-12-04T01:25:18;4.50;99.90
15143;DHT22;7672;50.834;6.286;2023-12-04T01:27:45;4.50;99.90
15143;DHT22;7672;50.834;6.286;2023-12-04T01:30:12;4.50;99.90
15143;DHT22;7672;50.834;6.286;2023-12-04T01:32:40;4.50;99.90
15143;DHT22;7672;50.834;6.286;2023-12-04T01:35:07;4.80;99.90
15143;DHT22;7672;50.834;6.286;2023-12-04T01:37:34;4.50;99.90
15143;DHT22;7672;50.834;6.286;2023-12-04T01:40:04;4.40;99.90
15143;DHT22;7672;50.834;6.286;2023-12-04T01:42:33;4.40;99.90
15143;DHT22;7672;50.834;6.286;2023-12-04T01:45:00;4.40;99.90
15143;DHT22;7672;50.834;6.286;2023-12-04T01:47:27;4.40;99.90
15143;DHT22;7672;50.834;6.286;2023-12-04T01:49:55;4.40;99.90
15143;DHT22;7672;50.834;6.286;2023-12-04T01:52:22;4.30;99.90
15143;DHT22;7672;50.834;6.286;2023-12-04T01:54:51;4.30;99.90
15143;DHT22;7672;50.834;6.286;2023-12-04T01:57:19;4.20;99.90
15143;DHT22;7672;50.834;6.286;2023-12-04T01:59:46;4.20;99.90
15143;DHT22;7672;50.834;6.286;2023-12-04T02:02:13;4.20;99.90
15143;DHT22;7672;50.834;6.286;2023-12-04T02:04:40;4.20;99.90
15143;DHT22;7672;50.834;6.286;2023-12-04T02:07:08;4.20;99.90
15143;DHT22;7672;50.834;6.286;2023-12-04T02:09:37;4.20;99.90
15143;DHT22;7672;50.834;6.286;2023-12-04T02:12:05;4.10;99.90
15143;DHT22;7672;50.834;6.286;2023-12-04T02:14:33;4.20;99.90
15143;DHT22;7672;50.834;6.286;2023-12-04T02:17:01;4.10;99.90
15143;DHT22;7672;50.834;6.286;2023-12-04T02:19:29;4.10;99.90
15143;DHT22;7672;50.834;6.286;2023-12-04T02:21:56;3.80;99.90
15143;DHT22;7672;50.834;6.286;2023-12-04T02:24:23;4.20;99.90
15143;DHT22;7672;50.834;6.286;2023-12-04T02:26:55;4.20;99.90
15143;DHT22;7672;50.834;6.286;2023-12-04T02:29:32;4.20;99.90
15143;DHT22;7672;50.834;6.286;2023-12-04T02:32:04;4.20;99.90
15143;DHT22;7672;50.834;6.286;2023-12-04T02:34:33;4.20;99.90
15143;DHT22;7672;50.834;6.286;2023-12-04T02:37:01;4.20;99.90
15143;DHT22;7672;50.834;6.286;2023-12-04T02:39:29;4.20;99.90
15143;DHT22;7672;50.834;6.286;2023-12-04T02:41:56;4.20;99.90
15143;DHT22;7672;50.834;6.286;2023-12-04T02:44:23;4.20;99.90
15143;DHT22;7672;50.834;6.286;2023-12-04T02:46:50;4.20;99.90
15143;DHT22;7672;50.834;6.286;2023-12-04T02:49:17;4.20;99.90
15143;DHT22;7672;50.834;6.286;2023-12-04T02:51:44;4.20;99.90
15143;DHT22;7672;50.834;6.286;2023-12-04T02:54:11;4.20;99.90
15143;DHT22;7672;50.834;6.286;2023-12-04T02:56:38;4.20;99.90
15143;DHT22;7672;50.834;6.286;2023-12-04T02:59:05;4.20;99.90
15143;DHT22;7672;50.834;6.286;2023-12-04T03:01:32;4.10;99.90
15143;DHT22;7672;50.834;6.286;2023-12-04T03:03:59;4.10;99.90
15143;DHT22;7672;50.834;6.286;2023-12-04T03:06:26;4.10;99.90
15143;DHT22;7672;50.834;6.286;2023-12-04T03:08:53;4.10;99.90
15143;DHT22;7672;50.834;6.286;2023-12-04T03:11:21;4.10;99.90
15143;DHT22;7672;50.834;6.286;2023-12-04T03:13:47;4.10;99.90
15143;DHT22;7672;50.834;6.286;2023-12-04T03:16:16;4.10;99.90
15143;DHT22;7672;50.834;6.286;2023-12-04T03:18:44;4.10;99.90
15143;DHT22;7672;50.834;6.286;2023-12-04T03:21:11;4.10;99.90
15143;DHT22;7672;50.834;6.286;2023-12-04T03:23:38;4.10;99.90
15143;DHT22;7672;50.834;6.286;2023-12-04T03:26:05;4.50;99.90
15143;DHT22;7672;50.834;6.286;2023-12-04T03:28:32;4.10;99.90
15143;DHT22;7672;50.834;6.286;2023-12-04T03:31:00;4.60;99.90
15143;DHT22;7672;50.834;6.286;2023-12-04T03:33:27;4.20;99.90
15143;DHT22;7672;50.834;6.286;2023-12-04T03:35:54;4.10;99.90
15143;DHT22;7672;50.834;6.286;2023-12-04T03:38:21;4.20;99.90
15143;DHT22;7672;50.834;6.286;2023-12-04T03:40:48;4.20;99.90
15143;DHT22;7672;50.834;6.286;2023-12-04T03:43:15;4.20;99.90
15143;DHT22;7672;50.834;6.286;2023-12-04T03:45:42;4.10;99.90
15143;DHT22;7672;50.834;6.286;2023-12-04T03:48:09;4.60;99.90
15143;DHT22;7672;50.834;6.286;2023-12-04T03:50:36;4.20;99.90
15143;DHT22;7672;50.834;6.286;2023-12-04T03:53:03;4.20;99.90
15143;DHT22;7672;50.834;6.286;2023-12-04T03:55:30;4.10;99.90
15143;DHT22;7672;50.834;6.286;2023-12-04T03:57:57;4.10;99.90
15143;DHT22;7672;50.834;6.286;2023-12-04T04:00:24;4.10;99.90
15143;DHT22;7672;50.834;6.286;2023-12-04T04:02:51;4.10;99.90
15143;DHT22;7672;50.834;6.286;2023-12-04T04:05:18;4.20;99.90
15143;DHT22;7672;50.834;6.286;2023-12-04T04:07:45;4.20;99.90
15143;DHT22;7672;50.834;6.286;2023-12-04T04:10:13;4.20;99.90
15143;DHT22;7672;50.834;6.286;2023-12-04T04:12:39;4.20;99.90
15143;DHT22;7672;50.834;6.286;2023-12-04T04:15:07;4.20;99.90
15143;DHT22;7672;50.834;6.286;2023-12-04T04:17:34;4.20;99.90
15143;DHT22;7672;50.834;6.286;2023-12-04T04:20:01;4.20;99.90
15143;DHT22;7672;50.834;6.286;2023-12-04T04:22:29;4.60;99.90
15143;DHT22;7672;50.834;6.286;2023-12-04T04:24:57;4.50;99.90
15143;DHT22;7672;50.834;6.286;2023-12-04T04:27:27;4.30;99.90
15143;DHT22;7672;50.834;6.286;2023-12-04T04:29:54;4.30;99.90
15143;DHT22;7672;50.834;6.286;2023-12-04T04:32:24;4.00;99.90
15143;DHT22;7672;50.834;6.286;2023-12-04T04:34:51;4.00;99.90
15143;DHT22;7672;50.834;6.286;2023-12-04T04:38:24;4.00;99.90
15143;DHT22;7672;50.834;6.286;2023-12-04T04:41:13;4.30;99.90
15143;DHT22;7672;50.834;6.286;2023-12-04T04:43:53;3.90;99.90
15143;DHT22;7672;50.834;6.286;2023-12-04T04:46:24;3.90;99.90
15143;DHT22;7672;50.834;6.286;2023-12-04T04:49:51;3.40;99.90
15143;DHT22;7672;50.834;6.286;2023-12-04T05:04:32;3.80;99.90
15143;DHT22;7672;50.834;6.286;2023-12-04T05:06:59;3.80;99.90
15143;DHT22;7672;50.834;6.286;2023-12-04T05:09:26;3.80;99.90
15143;DHT22;7672;50.834;6.286;2023-12-04T05:11:53;3.80;99.90
15143;DHT22;7672;50.834;6.286;2023-12-04T05:14:23;3.80;99.90
15143;DHT22;7672;50.834;6.286;2023-12-04T05:16:50;3.80;99.90
15143;DHT22;7672;50.834;6.286;2023-12-04T05:19:17;4.30;99.90
15143;DHT22;7672;50.834;6.286;2023-12-04T05:21:44;3.90;99.90
15143;DHT22;7672;50.834;6.286;2023-12-04T05:24:12;3.90;99.90
15143;DHT22;7672;50.834;6.286;2023-12-04T05:26:39;3.90;99.90
15143;DHT22;7672;50.834;6.286;2023-12-04T05:29:11;4.00;99.90
15143;DHT22;7672;50.834;6.286;2023-12-04T05:31:38;3.90;99.90
15143;DHT22;7672;50.834;6.286;2023-12-04T05:34:04;4.20;99.90
15143;DHT22;7672;50.834;6.286;2023-12-04T05:36:32;4.00;99.90
15143;DHT22;7672;50.834;6.286;2023-12-04T05:38:59;4.00;99.90
15143;DHT22;7672;50.834;6.286;2023-12-04T05:41:30;4.00;99.90
15143;DHT22;7672;50.834;6.286;2023-12-04T05:44:06;4.20;99.90
15143;DHT22;7672;50.834;6.286;2023-12-04T05:46:41;3.90;99.90
15143;DHT22;7672;50.834;6.286;2023-12-04T05:49:20;3.60;99.90
15143;DHT22;7672;50.834;6.286;2023-12-04T05:52:12;4.20;99.90
15143;DHT22;7672;50.834;6.286;2023-12-04T05:54:40;4.30;99.90
15143;DHT22;7672;50.834;6.286;2023-12-04T05:57:07;4.00;99.90
15143;DHT22;7672;50.834;6.286;2023-12-04T05:59:34;4.20;99.90
15143;DHT22;7672;50.834;6.286;2023-12-04T06:02:06;3.90;99.90
15143;DHT22;7672;50.834;6.286;2023-12-04T06:05:49;4.40;99.90
15143;DHT22;7672;50.834;6.286;2023-12-04T06:22:20;3.90;99.90
15143;DHT22;7672;50.834;6.286;2023-12-04T06:24:50;3.80;99.90
15143;DHT22;7672;50.834;6.286;2023-12-04T06:27:26;3.80;99.90
15143;DHT22;7672;50.834;6.286;2023-12-04T06:30:16;3.80;99.90
15143;DHT22;7672;50.834;6.286;2023-12-04T06:33:09;3.80;99.90
15143;DHT22;7672;50.834;6.286;2023-12-04T06:35:54;3.80;99.90
15143;DHT22;7672;50.834;6.286;2023-12-04T06:38:24;3.80;99.90
15143;DHT22;7672;50.834;6.286;2023-12-04T06:40:53;4.00;99.90
15143;DHT22;7672;50.834;6.286;2023-12-04T06:43:20;3.90;99.90
15143;DHT22;7672;50.834;6.286;2023-12-04T06:45:56;3.90;99.90
15143;DHT22;7672;50.834;6.286;2023-12-04T06:48:33;3.90;99.90
15143;DHT22;7672;50.834;6.286;2023-12-04T06:51:01;3.90;99.90
15143;DHT22;7672;50.834;6.286;2023-12-04T06:53:28;3.90;99.90
15143;DHT22;7672;50.834;6.286;2023-12-04T06:55:58;3.90;99.90
15143;DHT22;7672;50.834;6.286;2023-12-04T06:58:32;3.90;99.90
15143;DHT22;7672;50.834;6.286;2023-12-04T07:01:17;3.90;99.90
15143;DHT22;7672;50.834;6.286;2023-12-04T07:03:48;3.90;99.90
15143;DHT22;7672;50.834;6.286;2023-12-04T07:06:24;4.50;99.90
15143;DHT22;7672;50.834;6.286;2023-12-04T07:09:16;4.00;99.90
15143;DHT22;7672;50.834;6.286;2023-12-04T07:11:50;3.90;99.90
15143;DHT22;7672;50.834;6.286;2023-12-04T07:14:33;3.90;99.90
15143;DHT22;7672;50.834;6.286;2023-12-04T07:17:02;3.90;99.90
15143;DHT22;7672;50.834;6.286;2023-12-04T07:20:02;4.30;99.90
15143;DHT22;7672;50.834;6.286;2023-12-04T07:54:29;3.20;99.90
15143;DHT22;7672;50.834;6.286;2023-12-04T07:56:56;3.20;99.90
15143;DHT22;7672;50.834;6.286;2023-12-04T07:59:23;3.20;99.90
15143;DHT22;7672;50.834;6.286;2023-12-04T08:01:51;3.20;99.90
15143;DHT22;7672;50.834;6.286;2023-12-04T08:04:18;3.10;99.90
15143;DHT22;7672;50.834;6.286;2023-12-04T08:06:45;3.10;99.90
15143;DHT22;7672;50.834;6.286;2023-12-04T08:09:16;3.10;99.90
15143;DHT22;7672;50.834;6.286;2023-12-04T08:12:17;3.10;99.90
15143;DHT22;7672;50.834;6.286;2023-12-04T08:19:11;3.70;99.90
15143;DHT22;7672;50.834;6.286;2023-12-04T08:21:55;3.00;99.90
15143;DHT22;7672;50.834;6.286;2023-12-04T08:25:01;3.10;99.90
15143;DHT22;7672;50.834;6.286;2023-12-04T08:27:37;3.10;99.90
15143;DHT22;7672;50.834;6.286;2023-12-04T08:30:23;3.00;99.90
15143;DHT22;7672;50.834;6.286;2023-12-04T08:32:58;3.00;99.90
15143;DHT22;7672;50.834;6.286;2023-12-04T08:35:47;3.00;99.90
15143;DHT22;7672;50.834;6.286;2023-12-04T08:38:40;3.10;99.90
15143;DHT22;7672;50.834;6.286;2023-12-04T08:41:46;3.20;99.90
15143;DHT22;7672;50.834;6.286;2023-12-04T08:44:27;3.30;99.90
15143;DHT22;7672;50.834;6.286;2023-12-04T08:46:55;3.30;99.90
15143;DHT22;7672;50.834;6.286;2023-12-04T08:49:24;3.40;99.90
15143;DHT22;7672;50.834;6.286;2023-12-04T08:52:05;3.50;99.90
15143;DHT22;7672;50.834;6.286;2023-12-04T08:54:32;3.60;99.90
15143;DHT22;7672;50.834;6.286;2023-12-04T08:57:00;3.70;99.90
15143;DHT22;7672;50.834;6.286;2023-12-04T08:59:29;3.80;99.90
15143;DHT22;7672;50.834;6.286;2023-12-04T09:01:57;3.90;99.90
15143;DHT22;7672;50.834;6.286;2023-12-04T09:04:31;3.90;99.90
15143;DHT22;7672;50.834;6.286;2023-12-04T09:07:03;4.00;99.90
15143;DHT22;7672;50.834;6.286;2023-12-04T09:09:33;4.10;99.90
15143;DHT22;7672;50.834;6.286;2023-12-04T09:12:00;4.20;99.90
15143;DHT22;7672;50.834;6.286;2023-12-04T09:14:28;4.30;99.90
15143;DHT22;7672;50.834;6.286;2023-12-04T09:16:58;4.40;99.90
15143;DHT22;7672;50.834;6.286;2023-12-04T09:19:25;4.50;99.90
15143;DHT22;7672;50.834;6.286;2023-12-04T09:21:52;4.60;99.90
15143;DHT22;7672;50.834;6.286;2023-12-04T09:24:34;5.10;99.90
15143;DHT22;7672;50.834;6.286;2023-12-04T09:27:02;4.80;99.90
15143;DHT22;7672;50.834;6.286;2023-12-04T09:29:29;4.90;99.90
15143;DHT22;7672;50.834;6.286;2023-12-04T09:31:56;5.00;99.90
15143;DHT22;7672;50.834;6.286;2023-12-04T09:34:23;5.00;99.90
15143;DHT22;7672;50.834;6.286;2023-12-04T09:36:54;5.10;99.90
15143;DHT22;7672;50.834;6.286;2023-12-04T09:39:34;5.30;99.90
15143;DHT22;7672;50.834;6.286;2023-12-04T09:42:02;5.20;99.90
15143;DHT22;7672;50.834;6.286;2023-12-04T09:44:32;5.80;99.90
15143;DHT22;7672;50.834;6.286;2023-12-04T09:47:01;5.20;99.90
15143;DHT22;7672;50.834;6.286;2023-12-04T09:49:31;5.20;99.90
15143;DHT22;7672;50.834;6.286;2023-12-04T09:51:58;5.30;99.90
15143;DHT22;7672;50.834;6.286;2023-12-04T09:54:29;5.30;99.90
15143;DHT22;7672;50.834;6.286;2023-12-04T09:56:56;5.30;99.90
15143;DHT22;7672;50.834;6.286;2023-12-04T09:59:44;5.40;99.90
15143;DHT22;7672;50.834;6.286;2023-12-04T10:06:47;5.00;99.90
15143;DHT22;7672;50.834;6.286;2023-12-04T10:10:34;5.30;99.90
15143;DHT22;7672;50.834;6.286;2023-12-04T10:13:54;5.40;99.90
15143;DHT22;7672;50.834;6.286;2023-12-04T10:20:10;5.50;99.90
15143;DHT22;7672;50.834;6.286;2023-12-04T10:27:17;5.50;99.90
15143;DHT22;7672;50.834;6.286;2023-12-04T10:30:28;5.80;99.90
15143;DHT22;7672;50.834;6.286;2023-12-04T10:32:57;5.60;99.90
15143;DHT22;7672;50.834;6.286;2023-12-04T10:35:32;5.60;99.90
15143;DHT22;7672;50.834;6.286;2023-12-04T10:38:02;5.60;99.90
15143;DHT22;7672;50.834;6.286;2023-12-04T10:42:01;5.70;99.90
15143;DHT22;7672;50.834;6.286;2023-12-04T10:49:58;5.80;99.90
15143;DHT22;7672;50.834;6.286;2023-12-04T10:52:26;5.80;99.90
15143;DHT22;7672;50.834;6.286;2023-12-04T10:54:56;5.90;99.90
15143;DHT22;7672;50.834;6.286;2023-12-04T10:58:30;5.90;99.90
15143;DHT22;7672;50.834;6.286;2023-12-04T11:02:27;5.80;99.90
15143;DHT22;7672;50.834;6.286;2023-12-04T11:06:06;5.80;99.90
15143;DHT22;7672;50.834;6.286;2023-12-04T11:09:40;6.00;99.90
15143;DHT22;7672;50.834;6.286;2023-12-04T11:13:54;6.10;99.90
15143;DHT22;7672;50.834;6.286;2023-12-04T11:16:51;5.80;99.90
15143;DHT22;7672;50.834;6.286;2023-12-04T11:19:35;6.00;99.90
15143;DHT22;7672;50.834;6.286;2023-12-04T11:22:10;6.00;99.90
15143;DHT22;7672;50.834;6.286;2023-12-04T11:24:39;6.00;99.90
15143;DHT22;7672;50.834;6.286;2023-12-04T11:27:07;6.40;99.90
15143;DHT22;7672;50.834;6.286;2023-12-04T11:29:36;6.00;99.90
15143;DHT22;7672;50.834;6.286;2023-12-04T11:32:30;6.10;99.90
15143;DHT22;7672;50.834;6.286;2023-12-04T11:35:01;6.10;99.90
15143;DHT22;7672;50.834;6.286;2023-12-04T11:37:31;6.70;99.90
15143;DHT22;7672;50.834;6.286;2023-12-04T11:40:17;6.00;99.90
15143;DHT22;7672;50.834;6.286;2023-12-04T11:42:44;5.90;99.90
15143;DHT22;7672;50.834;6.286;2023-12-04T11:45:20;6.30;99.90
15143;DHT22;7672;50.834;6.286;2023-12-04T11:47:56;6.00;99.90
15143;DHT22;7672;50.834;6.286;2023-12-04T11:50:25;6.00;99.90
15143;DHT22;7672;50.834;6.286;2023-12-04T11:52:54;5.90;99.90
15143;DHT22;7672;50.834;6.286;2023-12-04T11:55:59;6.00;99.90
15143;DHT22;7672;50.834;6.286;2023-12-04T11:58:42;5.50;99.90
15143;DHT22;7672;50.834;6.286;2023-12-04T12:01:11;5.90;99.90
15143;DHT22;7672;50.834;6.286;2023-12-04T12:03:38;5.90;99.90
15143;DHT22;7672;50.834;6.286;2023-12-04T12:06:09;6.30;99.90
15143;DHT22;7672;50.834;6.286;2023-12-04T12:08:41;5.80;99.90
15143;DHT22;7672;50.834;6.286;2023-12-04T12:11:08;5.80;99.90
15143;DHT22;7672;50.834;6.286;2023-12-04T12:17:43;5.80;99.90
15143;DHT22;7672;50.834;6.286;2023-12-04T12:20:12;6.10;99.90
15143;DHT22;7672;50.834;6.286;2023-12-04T12:22:41;5.80;99.90
15143;DHT22;7672;50.834;6.286;2023-12-04T12:25:18;5.70;99.90
15143;DHT22;7672;50.834;6.286;2023-12-04T12:27:46;6.50;99.90
15143;DHT22;7672;50.834;6.286;2023-12-04T12:30:24;6.30;99.90
15143;DHT22;7672;50.834;6.286;2023-12-04T12:43:20;5.70;99.90
15143;DHT22;7672;50.834;6.286;2023-12-04T12:50:47;5.60;99.90
15143;DHT22;7672;50.834;6.286;2023-12-04T12:53:25;5.70;99.90
15143;DHT22;7672;50.834;6.286;2023-12-04T12:55:52;5.70;99.90
15143;DHT22;7672;50.834;6.286;2023-12-04T13:02:20;5.40;99.90
15143;DHT22;7672;50.834;6.286;2023-12-04T13:04:51;5.40;99.90
15143;DHT22;7672;50.834;6.286;2023-12-04T13:07:18;5.30;99.90
15143;DHT22;7672;50.834;6.286;2023-12-04T13:09:46;5.20;99.90
15143;DHT22;7672;50.834;6.286;2023-12-04T13:12:14;5.10;99.90
15143;DHT22;7672;50.834;6.286;2023-12-04T13:14:41;5.10;99.90
15143;DHT22;7672;50.834;6.286;2023-12-04T13:17:09;5.00;99.90
15143;DHT22;7672;50.834;6.286;2023-12-04T13:19:36;4.90;99.90
15143;DHT22;7672;50.834;6.286;2023-12-04T13:22:04;4.80;99.90
15143;DHT22;7672;50.834;6.286;2023-12-04T13:24:32;4.80;99.90
15143;DHT22;7672;50.834;6.286;2023-12-04T13:27:00;4.70;99.90
15143;DHT22;7672;50.834;6.286;2023-12-04T13:29:27;4.70;99.90
15143;DHT22;7672;50.834;6.286;2023-12-04T13:31:54;4.60;99.90
15143;DHT22;7672;50.834;6.286;2023-12-04T13:34:21;4.60;99.90
15143;DHT22;7672;50.834;6.286;2023-12-04T13:36:49;4.50;99.90
15143;DHT22;7672;50.834;6.286;2023-12-04T13:39:17;4.40;99.90
15143;DHT22;7672;50.834;6.286;2023-12-04T13:41:46;4.40;99.90
15143;DHT22;7672;50.834;6.286;2023-12-04T13:44:32;4.30;99.90
15143;DHT22;7672;50.834;6.286;2023-12-04T13:47:05;4.30;99.90
15143;DHT22;7672;50.834;6.286;2023-12-04T13:49:36;4.80;99.90
15143;DHT22;7672;50.834;6.286;2023-12-04T13:52:04;4.60;99.90
15143;DHT22;7672;50.834;6.286;2023-12-04T13:54:35;4.20;99.90
15143;DHT22;7672;50.834;6.286;2023-12-04T13:57:16;4.10;99.90
15143;DHT22;7672;50.834;6.286;2023-12-04T14:00:04;4.40;99.90
15143;DHT22;7672;50.834;6.286;2023-12-04T14:02:35;4.10;99.90
15143;DHT22;7672;50.834;6.286;2023-12-04T14:05:07;4.30;99.90
15143;DHT22;7672;50.834;6.286;2023-12-04T14:07:35;4.10;99.90
15143;DHT22;7672;50.834;6.286;2023-12-04T14:10:02;4.10;99.90
15143;DHT22;7672;50.834;6.286;2023-12-04T14:12:31;4.10;99.90
15143;DHT22;7672;50.834;6.286;2023-12-04T14:14:58;4.10;99.90
15143;DHT22;7672;50.834;6.286;2023-12-04T14:17:26;4.10;99.90
15143;DHT22;7672;50.834;6.286;2023-12-04T14:19:55;4.10;99.90
15143;DHT22;7672;50.834;6.286;2023-12-04T14:22:25;4.60;99.90
15143;DHT22;7672;50.834;6.286;2023-12-04T14:24:59;4.30;99.90
15143;DHT22;7672;50.834;6.286;2023-12-04T14:27:26;4.20;99.90
15143;DHT22;7672;50.834;6.286;2023-12-04T14:29:55;4.80;99.90
15143;DHT22;7672;50.834;6.286;2023-12-04T14:32:27;4.00;99.90
15143;DHT22;7672;50.834;6.286;2023-12-04T14:35:04;4.10;99.90
15143;DHT22;7672;50.834;6.286;2023-12-04T14:37:33;4.10;99.90
15143;DHT22;7672;50.834;6.286;2023-12-04T14:40:01;4.10;99.90
15143;DHT22;7672;50.834;6.286;2023-12-04T14:42:33;4.10;99.90
15143;DHT22;7672;50.834;6.286;2023-12-04T14:45:01;4.00;99.90
15143;DHT22;7672;50.834;6.286;2023-12-04T14:47:32;4.00;99.90
15143;DHT22;7672;50.834;6.286;2023-12-04T14:50:00;3.90;99.90
15143;DHT22;7672;50.834;6.286;2023-12-04T14:52:53;4.00;99.90
15143;DHT22;7672;50.834;6.286;2023-12-04T14:55:26;3.90;99.90
15143;DHT22;7672;50.834;6.286;2023-12-04T14:57:58;3.90;99.90
15143;DHT22;7672;50.834;6.286;2023-12-04T15:00:32;3.90;99.90
15143;DHT22;7672;50.834;6.286;2023-12-04T15:03:18;3.90;99.90
15143;DHT22;7672;50.834;6.286;2023-12-04T15:06:06;3.80;99.90
15143;DHT22;7672;50.834;6.286;2023-12-04T15:08:54;3.90;99.90
15143;DHT22;7672;50.834;6.286;2023-12-04T15:11:40;3.80;99.90
15143;DHT22;7672;50.834;6.286;2023-12-04T15:14:27;3.80;99.90
15143;DHT22;7672;50.834;6.286;2023-12-04T15:17:04;3.80;99.90
15143;DHT22;7672;50.834;6.286;2023-12-04T15:19:45;3.80;99.90
15143;DHT22;7672;50.834;6.286;2023-12-04T15:22:31;3.80;99.90
15143;DHT22;7672;50.834;6.286;2023-12-04T15:24:59;3.80;99.90
15143;DHT22;7672;50.834;6.286;2023-12-04T15:27:26;3.70;99.90
15143;DHT22;7672;50.834;6.286;2023-12-04T15:29:54;3.70;99.90
15143;DHT22;7672;50.834;6.286;2023-12-04T15:32:22;3.80;99.90
15143;DHT22;7672;50.834;6.286;2023-12-04T15:34:49;3.70;99.90
15143;DHT22;7672;50.834;6.286;2023-12-04T15:37:19;3.70;99.90
15143;DHT22;7672;50.834;6.286;2023-12-04T15:39:47;3.70;99.90
15143;DHT22;7672;50.834;6.286;2023-12-04T15:42:16;3.70;99.90
15143;DHT22;7672;50.834;6.286;2023-12-04T15:44:52;3.70;99.90
15143;DHT22;7672;50.834;6.286;2023-12-04T15:47:19;3.70;99.90
15143;DHT22;7672;50.834;6.286;2023-12-04T15:50:10;4.50;99.90
15143;DHT22;7672;50.834;6.286;2023-12-04T15:52:40;3.70;99.90
15143;DHT22;7672;50.834;6.286;2023-12-04T15:55:11;3.70;99.90
15143;DHT22;7672;50.834;6.286;2023-12-04T15:57:39;3.70;99.90
15143;DHT22;7672;50.834;6.286;2023-12-04T16:00:09;3.80;99.90
15143;DHT22;7672;50.834;6.286;2023-12-04T16:02:42;3.70;99.90
15143;DHT22;7672;50.834;6.286;2023-12-04T16:05:13;3.70;99.90
15143;DHT22;7672;50.834;6.286;2023-12-04T16:07:48;3.80;99.90
15143;DHT22;7672;50.834;6.286;2023-12-04T16:10:19;3.70;99.90
15143;DHT22;7672;50.834;6.286;2023-12-04T16:12:47;3.70;99.90
15143;DHT22;7672;50.834;6.286;2023-12-04T16:15:15;3.70;99.90
15143;DHT22;7672;50.834;6.286;2023-12-04T16:17:45;3.70;99.90
15143;DHT22;7672;50.834;6.286;2023-12-04T16:20:14;3.80;99.90
15143;DHT22;7672;50.834;6.286;2023-12-04T16:22:43;3.70;99.90
15143;DHT22;7672;50.834;6.286;2023-12-04T16:25:11;3.70;99.90
15143;DHT22;7672;50.834;6.286;2023-12-04T16:27:45;3.70;99.90
15143;DHT22;7672;50.834;6.286;2023-12-04T16:30:13;3.70;99.90
15143;DHT22;7672;50.834;6.286;2023-12-04T16:32:42;3.70;99.90
15143;DHT22;7672;50.834;6.286;2023-12-04T16:35:10;3.70;99.90
15143;DHT22;7672;50.834;6.286;2023-12-04T16:37:38;3.70;99.90
15143;DHT22;7672;50.834;6.286;2023-12-04T16:40:08;3.70;99.90
15143;DHT22;7672;50.834;6.286;2023-12-04T16:42:37;3.70;99.90
15143;DHT22;7672;50.834;6.286;2023-12-04T16:45:06;3.70;99.90
15143;DHT22;7672;50.834;6.286;2023-12-04T16:47:34;3.60;99.90
15143;DHT22;7672;50.834;6.286;2023-12-04T16:50:02;3.10;99.90
15143;DHT22;7672;50.834;6.286;2023-12-04T16:52:31;3.60;99.90
15143;DHT22;7672;50.834;6.286;2023-12-04T16:55:01;3.40;99.90
15143;DHT22;7672;50.834;6.286;2023-12-04T16:57:29;3.50;99.90
15143;DHT22;7672;50.834;6.286;2023-12-04T16:59:57;3.50;99.90
15143;DHT22;7672;50.834;6.286;2023-12-04T17:02:24;3.50;99.90
15143;DHT22;7672;50.834;6.286;2023-12-04T17:04:52;3.50;99.90
15143;DHT22;7672;50.834;6.286;2023-12-04T17:07:20;3.50;99.90
15143;DHT22;7672;50.834;6.286;2023-12-04T17:09:47;3.50;99.90
15143;DHT22;7672;50.834;6.286;2023-12-04T17:12:14;3.50;99.90
15143;DHT22;7672;50.834;6.286;2023-12-04T17:14:42;3.50;99.90
15143;DHT22;7672;50.834;6.286;2023-12-04T17:17:09;3.50;99.90
15143;DHT22;7672;50.834;6.286;2023-12-04T17:19:36;3.50;99.90
15143;DHT22;7672;50.834;6.286;2023-12-04T17:22:03;3.50;99.90
15143;DHT22;7672;50.834;6.286;2023-12-04T17:24:30;3.50;99.90
15143;DHT22;7672;50.834;6.286;2023-12-04T17:26:57;3.60;99.90
15143;DHT22;7672;50.834;6.286;2023-12-04T17:29:24;3.60;99.90
15143;DHT22;7672;50.834;6.286;2023-12-04T17:31:53;3.60;99.90
15143;DHT22;7672;50.834;6.286;2023-12-04T17:34:20;3.60;99.90
15143;DHT22;7672;50.834;6.286;2023-12-04T17:36:49;3.70;99.90
15143;DHT22;7672;50.834;6.286;2023-12-04T17:39:16;3.70;99.90
15143;DHT22;7672;50.834;6.286;2023-12-04T17:41:46;3.70;99.90
15143;DHT22;7672;50.834;6.286;2023-12-04T17:44:13;3.70;99.90
15143;DHT22;7672;50.834;6.286;2023-12-04T17:46:41;3.70;99.90
15143;DHT22;7672;50.834;6.286;2023-12-04T17:49:08;3.70;99.90
15143;DHT22;7672;50.834;6.286;2023-12-04T17:51:36;3.70;99.90
15143;DHT22;7672;50.834;6.286;2023-12-04T17:54:03;3.70;99.90
15143;DHT22;7672;50.834;6.286;2023-12-04T17:56:31;3.70;99.90
15143;DHT22;7672;50.834;6.286;2023-12-04T17:59:00;3.70;99.90
15143;DHT22;7672;50.834;6.286;2023-12-04T18:01:29;3.70;99.90
15143;DHT22;7672;50.834;6.286;2023-12-04T18:03:57;3.60;99.90
15143;DHT22;7672;50.834;6.286;2023-12-04T18:06:29;3.60;99.90
15143;DHT22;7672;50.834;6.286;2023-12-04T18:08:57;3.60;99.90
15143;DHT22;7672;50.834;6.286;2023-12-04T18:11:26;3.60;99.90
15143;DHT22;7672;50.834;6.286;2023-12-04T18:13:53;3.60;99.90
15143;DHT22;7672;50.834;6.286;2023-12-04T18:16:20;3.60;99.90
15143;DHT22;7672;50.834;6.286;2023-12-04T18:18:52;3.60;99.90
15143;DHT22;7672;50.834;6.286;2023-12-04T18:21:20;3.60;99.90
15143;DHT22;7672;50.834;6.286;2023-12-04T18:23:50;3.60;99.90